<?xml version='1.0' encoding='UTF-8'?><gpx version="1.1" creator="JPX - https://github.com/jenetics/jpx" xmlns="http://www.topografix.com/GPX/1/1"><trk><trkseg><trkpt lat="39.293668907469566" lon="8.5226695725774"><ele>147.0</ele><time>2026-04-25T13:49:01.088Z</time></trkpt><trkpt lat="39.2936764040872" lon="8.522771342243676"><ele>147.0</ele><time>2026-04-25T13:49:07.984Z</time></trkpt><trkpt lat="39.293667308076714" lon="8.522853774407768"><ele>147.0</ele><time>2026-04-25T13:49:14.984Z</time></trkpt><trkpt lat="39.29365176845913" lon="8.522951287641076"><ele>147.0</ele><time>2026-04-25T13:49:21.984Z</time></trkpt><trkpt lat="39.2936350276111" lon="8.523043076734803"><ele>147.0</ele><time>2026-04-25T13:49:27.984Z</time></trkpt><trkpt lat="39.2936197572094" lon="8.523134975165725"><ele>147.0</ele><time>2026-04-25T13:49:34.984Z</time></trkpt><trkpt lat="39.29363382414486" lon="8.523223830200216"><ele>147.0</ele><time>2026-04-25T13:49:40.984Z</time></trkpt><trkpt lat="39.2936712956482" lon="8.523299822690849"><ele>146.85714285714286</ele><time>2026-04-25T13:49:46.984Z</time></trkpt><trkpt lat="39.29371980087367" lon="8.523367350803806"><ele>146.71428571428572</ele><time>2026-04-25T13:49:52.984Z</time></trkpt><trkpt lat="39.29376579026486" lon="8.523433725584216"><ele>146.57142857142856</ele><time>2026-04-25T13:49:57.985Z</time></trkpt><trkpt lat="39.29379348681174" lon="8.523512764653317"><ele>146.42857142857144</ele><time>2026-04-25T13:50:04.985Z</time></trkpt><trkpt lat="39.29379699985284" lon="8.523603542503698"><ele>146.28571428571428</ele><time>2026-04-25T13:50:11.985Z</time></trkpt><trkpt lat="39.293754021263595" lon="8.523664049939569"><ele>146.14285714285714</ele><time>2026-04-25T13:50:18.985Z</time></trkpt><trkpt lat="39.29369818378953" lon="8.523710616142457"><ele>146.0</ele><time>2026-04-25T13:50:24.985Z</time></trkpt><trkpt lat="39.29363735248295" lon="8.52374261423536"><ele>146.0</ele><time>2026-04-25T13:50:30.985Z</time></trkpt><trkpt lat="39.29356799601496" lon="8.52376913932783"><ele>146.0</ele><time>2026-04-25T13:50:35.985Z</time></trkpt><trkpt lat="39.29350153228571" lon="8.523790994542235"><ele>146.0</ele><time>2026-04-25T13:50:40.985Z</time></trkpt><trkpt lat="39.29344789475251" lon="8.52383855885983"><ele>146.0</ele><time>2026-04-25T13:50:45.985Z</time></trkpt><trkpt lat="39.29340624853916" lon="8.52390596188881"><ele>146.0</ele><time>2026-04-25T13:50:50.985Z</time></trkpt><trkpt lat="39.29339629230266" lon="8.524001580908932"><ele>146.0</ele><time>2026-04-25T13:50:56.984Z</time></trkpt><trkpt lat="39.29338545688862" lon="8.524083901345927"><ele>146.0</ele><time>2026-04-25T13:51:17.984Z</time></trkpt><trkpt lat="39.293384705731995" lon="8.524166468831446"><ele>146.0</ele><time>2026-04-25T13:51:22.984Z</time></trkpt><trkpt lat="39.29337032193546" lon="8.524257680308075"><ele>146.0</ele><time>2026-04-25T13:51:29.983Z</time></trkpt><trkpt lat="39.29337466107282" lon="8.524352160320188"><ele>146.0</ele><time>2026-04-25T13:51:35.983Z</time></trkpt><trkpt lat="39.29336891121917" lon="8.52445002069437"><ele>146.0</ele><time>2026-04-25T13:51:42.983Z</time></trkpt><trkpt lat="39.293349617093504" lon="8.524532723952756"><ele>146.0</ele><time>2026-04-25T13:51:49.983Z</time></trkpt><trkpt lat="39.293349327880506" lon="8.524622394718104"><ele>146.0</ele><time>2026-04-25T13:51:54.983Z</time></trkpt><trkpt lat="39.2933730957005" lon="8.524704843883638"><ele>146.0</ele><time>2026-04-25T13:52:48.983Z</time></trkpt><trkpt lat="39.29336148831067" lon="8.524786485047734"><ele>145.85714285714286</ele><time>2026-04-25T13:52:55.983Z</time></trkpt><trkpt lat="39.29334999577411" lon="8.52487464830631"><ele>145.71428571428572</ele><time>2026-04-25T13:53:02.982Z</time></trkpt><trkpt lat="39.29333858368695" lon="8.524963274383689"><ele>145.57142857142858</ele><time>2026-04-25T13:53:09.981Z</time></trkpt><trkpt lat="39.29333939391377" lon="8.525048959389572"><ele>145.42857142857144</ele><time>2026-04-25T13:53:16.982Z</time></trkpt><trkpt lat="39.29339606215336" lon="8.525089524869545"><ele>145.2857142857143</ele><time>2026-04-25T13:53:21.982Z</time></trkpt><trkpt lat="39.29346592330474" lon="8.525098587790698"><ele>145.14285714285714</ele><time>2026-04-25T13:53:26.982Z</time></trkpt><trkpt lat="39.293545498385164" lon="8.525087676990541"><ele>145.0</ele><time>2026-04-25T13:53:35.982Z</time></trkpt><trkpt lat="39.293614733044805" lon="8.525076120636822"><ele>145.0</ele><time>2026-04-25T13:53:42.982Z</time></trkpt><trkpt lat="39.29367897541078" lon="8.525070434863455"><ele>145.0</ele><time>2026-04-25T13:53:48.982Z</time></trkpt><trkpt lat="39.29374152514336" lon="8.525058185120013"><ele>145.0</ele><time>2026-04-25T13:53:54.982Z</time></trkpt><trkpt lat="39.293811527108424" lon="8.525051242934559"><ele>145.0</ele><time>2026-04-25T13:54:04.983Z</time></trkpt><trkpt lat="39.293881316736694" lon="8.525051546262725"><ele>145.0</ele><time>2026-04-25T13:54:10.983Z</time></trkpt><trkpt lat="39.29384788965169" lon="8.525125504031253"><ele>145.0</ele><time>2026-04-25T13:54:21.983Z</time></trkpt><trkpt lat="39.29378970811791" lon="8.525169884296835"><ele>145.0</ele><time>2026-04-25T13:54:29.983Z</time></trkpt><trkpt lat="39.29373491050338" lon="8.525210180972993"><ele>145.0</ele><time>2026-04-25T13:54:36.983Z</time></trkpt><trkpt lat="39.2936779985901" lon="8.52526530625168"><ele>145.0</ele><time>2026-04-25T13:54:43.983Z</time></trkpt><trkpt lat="39.29361816888134" lon="8.525311400171297"><ele>145.0</ele><time>2026-04-25T13:54:50.983Z</time></trkpt><trkpt lat="39.293559568906936" lon="8.525356541172892"><ele>145.0</ele><time>2026-04-25T13:54:56.983Z</time></trkpt><trkpt lat="39.29349638763782" lon="8.52539162386492"><ele>145.0</ele><time>2026-04-25T13:55:03.983Z</time></trkpt><trkpt lat="39.29343233962669" lon="8.525385087078103"><ele>145.0</ele><time>2026-04-25T13:55:09.982Z</time></trkpt><trkpt lat="39.29337765630705" lon="8.525327325345108"><ele>145.0</ele><time>2026-04-25T13:55:17.981Z</time></trkpt><trkpt lat="39.293351682455025" lon="8.525248088784789"><ele>145.0</ele><time>2026-04-25T13:55:25.981Z</time></trkpt><trkpt lat="39.29330678422479" lon="8.525181633336894"><ele>145.0</ele><time>2026-04-25T13:55:33.981Z</time></trkpt><trkpt lat="39.29323741116605" lon="8.525163894905317"><ele>145.0</ele><time>2026-04-25T13:55:40.982Z</time></trkpt><trkpt lat="39.29316743829065" lon="8.525137663441543"><ele>145.0</ele><time>2026-04-25T13:55:52.982Z</time></trkpt><trkpt lat="39.29310072703542" lon="8.525115116679254"><ele>145.0</ele><time>2026-04-25T13:55:57.982Z</time></trkpt><trkpt lat="39.293035482467396" lon="8.52510566054527"><ele>145.0</ele><time>2026-04-25T13:56:03.982Z</time></trkpt><trkpt lat="39.29297252633562" lon="8.525116927029972"><ele>145.0</ele><time>2026-04-25T13:56:09.982Z</time></trkpt><trkpt lat="39.29290705300851" lon="8.525124830297061"><ele>145.14285714285714</ele><time>2026-04-25T13:56:17.982Z</time></trkpt><trkpt lat="39.29283984771499" lon="8.525110937791924"><ele>145.2857142857143</ele><time>2026-04-25T13:56:23.982Z</time></trkpt><trkpt lat="39.292768532760014" lon="8.525079495568693"><ele>145.42857142857144</ele><time>2026-04-25T13:56:31.982Z</time></trkpt><trkpt lat="39.29269858061359" lon="8.525086739817365"><ele>145.57142857142858</ele><time>2026-04-25T13:56:38.982Z</time></trkpt><trkpt lat="39.29262944227741" lon="8.525090383231046"><ele>145.71428571428572</ele><time>2026-04-25T13:56:44.982Z</time></trkpt><trkpt lat="39.29255876190947" lon="8.525095762790906"><ele>145.85714285714286</ele><time>2026-04-25T13:56:51.982Z</time></trkpt><trkpt lat="39.292491223845715" lon="8.525100460463714"><ele>146.0</ele><time>2026-04-25T13:56:57.982Z</time></trkpt><trkpt lat="39.292417132788735" lon="8.525116397254193"><ele>146.0</ele><time>2026-04-25T13:57:03.982Z</time></trkpt><trkpt lat="39.29235161005806" lon="8.525119446962483"><ele>146.0</ele><time>2026-04-25T13:57:09.982Z</time></trkpt><trkpt lat="39.2922852300997" lon="8.525121961910495"><ele>146.0</ele><time>2026-04-25T13:57:15.981Z</time></trkpt><trkpt lat="39.29221875473211" lon="8.525144550473689"><ele>146.0</ele><time>2026-04-25T13:57:22.981Z</time></trkpt><trkpt lat="39.292162431144476" lon="8.525103160432224"><ele>146.0</ele><time>2026-04-25T13:57:28.982Z</time></trkpt><trkpt lat="39.292185327094586" lon="8.525023105864868"><ele>146.0</ele><time>2026-04-25T13:57:34.982Z</time></trkpt><trkpt lat="39.29223216353225" lon="8.524944291071703"><ele>146.0</ele><time>2026-04-25T13:57:40.982Z</time></trkpt><trkpt lat="39.29228949161619" lon="8.524889114008706"><ele>146.0</ele><time>2026-04-25T13:57:46.982Z</time></trkpt><trkpt lat="39.29228162707926" lon="8.524804488286165"><ele>146.0</ele><time>2026-04-25T13:57:52.982Z</time></trkpt><trkpt lat="39.292214948118236" lon="8.52477004406784"><ele>146.0</ele><time>2026-04-25T13:57:59.982Z</time></trkpt><trkpt lat="39.29218371804146" lon="8.524698126108557"><ele>146.0</ele><time>2026-04-25T13:58:05.982Z</time></trkpt><trkpt lat="39.29221907423464" lon="8.524626019752743"><ele>146.0</ele><time>2026-04-25T13:58:14.982Z</time></trkpt><trkpt lat="39.29227461112438" lon="8.524565105961653"><ele>146.0</ele><time>2026-04-25T13:58:21.982Z</time></trkpt><trkpt lat="39.29231907272503" lon="8.524507006352133"><ele>146.0</ele><time>2026-04-25T13:58:28.982Z</time></trkpt><trkpt lat="39.29237366751238" lon="8.524460433598335"><ele>146.0</ele><time>2026-04-25T13:58:35.982Z</time></trkpt><trkpt lat="39.292426078893236" lon="8.524397042107463"><ele>146.0</ele><time>2026-04-25T13:58:40.982Z</time></trkpt><trkpt lat="39.29247351810205" lon="8.524343066503263"><ele>146.0</ele><time>2026-04-25T13:58:46.982Z</time></trkpt><trkpt lat="39.29251821383145" lon="8.524282040158283"><ele>146.0</ele><time>2026-04-25T13:58:53.982Z</time></trkpt><trkpt lat="39.292559854930325" lon="8.524214024658772"><ele>146.0</ele><time>2026-04-25T13:59:01.983Z</time></trkpt><trkpt lat="39.292614006289675" lon="8.524164118455019"><ele>146.0</ele><time>2026-04-25T13:59:07.983Z</time></trkpt><trkpt lat="39.29266548423246" lon="8.524106292565019"><ele>146.0</ele><time>2026-04-25T13:59:13.983Z</time></trkpt><trkpt lat="39.29272820577913" lon="8.524051079097731"><ele>146.0</ele><time>2026-04-25T13:59:20.981Z</time></trkpt><trkpt lat="39.292793910893586" lon="8.523998983902464"><ele>146.0</ele><time>2026-04-25T13:59:27.982Z</time></trkpt><trkpt lat="39.2927910799617" lon="8.523905821776733"><ele>146.0</ele><time>2026-04-25T13:59:34.981Z</time></trkpt><trkpt lat="39.29275406121432" lon="8.523827754991197"><ele>146.0</ele><time>2026-04-25T13:59:40.981Z</time></trkpt><trkpt lat="39.29270065244339" lon="8.523756884036702"><ele>146.0</ele><time>2026-04-25T13:59:47.981Z</time></trkpt><trkpt lat="39.29266099711431" lon="8.523691173140149"><ele>146.0</ele><time>2026-04-25T13:59:53.981Z</time></trkpt><trkpt lat="39.29262051182522" lon="8.523622762399492"><ele>146.0</ele><time>2026-04-25T13:59:59.981Z</time></trkpt><trkpt lat="39.292572095159045" lon="8.523555925810907"><ele>146.0</ele><time>2026-04-25T14:00:06.981Z</time></trkpt><trkpt lat="39.2925193287691" lon="8.523484997197906"><ele>146.0</ele><time>2026-04-25T14:00:13.981Z</time></trkpt><trkpt lat="39.2924711794272" lon="8.52342897505178"><ele>146.0</ele><time>2026-04-25T14:00:19.981Z</time></trkpt><trkpt lat="39.292419449808534" lon="8.523363984556575"><ele>146.0</ele><time>2026-04-25T14:00:25.982Z</time></trkpt><trkpt lat="39.292370995397306" lon="8.523292445615843"><ele>146.0</ele><time>2026-04-25T14:00:31.982Z</time></trkpt><trkpt lat="39.29233118338639" lon="8.523224410324165"><ele>146.0</ele><time>2026-04-25T14:00:40.982Z</time></trkpt><trkpt lat="39.29229042844074" lon="8.523160301706845"><ele>146.0</ele><time>2026-04-25T14:00:46.982Z</time></trkpt><trkpt lat="39.29225363372102" lon="8.523092408792671"><ele>146.0</ele><time>2026-04-25T14:02:00.981Z</time></trkpt><trkpt lat="39.292269389706156" lon="8.52299618685738"><ele>146.0</ele><time>2026-04-25T14:02:12.981Z</time></trkpt><trkpt lat="39.292275796918815" lon="8.522914030941905"><ele>146.0</ele><time>2026-04-25T14:02:18.982Z</time></trkpt><trkpt lat="39.29225082329237" lon="8.522839207131303"><ele>146.0</ele><time>2026-04-25T14:02:24.982Z</time></trkpt><trkpt lat="39.29218930794675" lon="8.522778570952406"><ele>146.0</ele><time>2026-04-25T14:02:43.982Z</time></trkpt><trkpt lat="39.292143097655824" lon="8.522721595966548"><ele>146.0</ele><time>2026-04-25T14:02:49.982Z</time></trkpt><trkpt lat="39.29209769175082" lon="8.522656560920643"><ele>146.0</ele><time>2026-04-25T14:02:55.982Z</time></trkpt><trkpt lat="39.29209108171453" lon="8.52257404245194"><ele>145.71428571428572</ele><time>2026-04-25T14:03:01.982Z</time></trkpt><trkpt lat="39.29207795536644" lon="8.52248781305891"><ele>145.42857142857144</ele><time>2026-04-25T14:03:07.982Z</time></trkpt><trkpt lat="39.29201233453385" lon="8.522470868626002"><ele>145.14285714285717</ele><time>2026-04-25T14:03:18.982Z</time></trkpt><trkpt lat="39.291945096013286" lon="8.522489161095853"><ele>144.85714285714286</ele><time>2026-04-25T14:03:25.982Z</time></trkpt><trkpt lat="39.2918790012344" lon="8.522501525364586"><ele>144.57142857142858</ele><time>2026-04-25T14:03:32.98Z</time></trkpt><trkpt lat="39.29181104672887" lon="8.522493459194603"><ele>144.2857142857143</ele><time>2026-04-25T14:03:38.98Z</time></trkpt><trkpt lat="39.2917448357731" lon="8.522473754085448"><ele>144.0</ele><time>2026-04-25T14:03:44.981Z</time></trkpt><trkpt lat="39.291690860586165" lon="8.52241007096823"><ele>144.00000000000003</ele><time>2026-04-25T14:03:50.981Z</time></trkpt><trkpt lat="39.29164187468442" lon="8.522330382160872"><ele>144.0</ele><time>2026-04-25T14:03:58.981Z</time></trkpt><trkpt lat="39.29162891381167" lon="8.522248263704272"><ele>144.0</ele><time>2026-04-25T14:04:03.981Z</time></trkpt><trkpt lat="39.29160083023305" lon="8.522173437794022"><ele>144.0</ele><time>2026-04-25T14:04:10.981Z</time></trkpt><trkpt lat="39.29157191167491" lon="8.522101010369486"><ele>144.0</ele><time>2026-04-25T14:04:18.981Z</time></trkpt><trkpt lat="39.29155694640725" lon="8.522006925932889"><ele>144.00000000000003</ele><time>2026-04-25T14:04:25.981Z</time></trkpt><trkpt lat="39.29151425075702" lon="8.521933079072305"><ele>144.0</ele><time>2026-04-25T14:06:04.981Z</time></trkpt><trkpt lat="39.291469533281735" lon="8.521873034308205"><ele>144.2857142857143</ele><time>2026-04-25T14:06:10.981Z</time></trkpt><trkpt lat="39.29143241779797" lon="8.521805139652532"><ele>144.57142857142858</ele><time>2026-04-25T14:06:20.981Z</time></trkpt><trkpt lat="39.29138928844514" lon="8.521740237705213"><ele>144.85714285714286</ele><time>2026-04-25T14:06:26.981Z</time></trkpt><trkpt lat="39.291339035962075" lon="8.521689314823256"><ele>145.14285714285717</ele><time>2026-04-25T14:06:40.981Z</time></trkpt><trkpt lat="39.29129291596966" lon="8.521614811629814"><ele>145.42857142857144</ele><time>2026-04-25T14:06:47.981Z</time></trkpt><trkpt lat="39.291251291992815" lon="8.521542101640202"><ele>145.71428571428572</ele><time>2026-04-25T14:07:03.981Z</time></trkpt><trkpt lat="39.291220948297166" lon="8.521467957941166"><ele>146.0</ele><time>2026-04-25T14:07:09.981Z</time></trkpt><trkpt lat="39.2911923270568" lon="8.521384217968123"><ele>146.14285714285714</ele><time>2026-04-25T14:07:34.98Z</time></trkpt><trkpt lat="39.291169129287496" lon="8.521303944459648"><ele>146.28571428571428</ele><time>2026-04-25T14:07:41.979Z</time></trkpt><trkpt lat="39.291136968463015" lon="8.521230722918324"><ele>146.42857142857144</ele><time>2026-04-25T14:07:47.978Z</time></trkpt><trkpt lat="39.29110940828846" lon="8.52115651432951"><ele>146.57142857142856</ele><time>2026-04-25T14:07:52.978Z</time></trkpt><trkpt lat="39.2910816601406" lon="8.521082897825874"><ele>146.71428571428572</ele><time>2026-04-25T14:07:58.978Z</time></trkpt><trkpt lat="39.29106211463555" lon="8.521004791734166"><ele>146.85714285714286</ele><time>2026-04-25T14:08:03.978Z</time></trkpt><trkpt lat="39.29103898630828" lon="8.520919925776779"><ele>147.0</ele><time>2026-04-25T14:08:10.978Z</time></trkpt><trkpt lat="39.29110364627446" lon="8.520907531769437"><ele>147.42857142857142</ele><time>2026-04-25T14:08:50.978Z</time></trkpt><trkpt lat="39.29116858392576" lon="8.520900303662618"><ele>147.85714285714286</ele><time>2026-04-25T14:08:59.978Z</time></trkpt><trkpt lat="39.29123245667549" lon="8.520888899252158"><ele>148.28571428571428</ele><time>2026-04-25T14:09:06.978Z</time></trkpt><trkpt lat="39.29129613234155" lon="8.520882390209431"><ele>148.71428571428572</ele><time>2026-04-25T14:09:19.979Z</time></trkpt><trkpt lat="39.29135987950725" lon="8.520855257478813"><ele>149.14285714285714</ele><time>2026-04-25T14:09:26.979Z</time></trkpt><trkpt lat="39.291423227982676" lon="8.520839896639789"><ele>149.57142857142856</ele><time>2026-04-25T14:09:33.979Z</time></trkpt><trkpt lat="39.291487263021764" lon="8.5208238560857"><ele>150.0</ele><time>2026-04-25T14:09:39.979Z</time></trkpt><trkpt lat="39.29155665739167" lon="8.520815558022239"><ele>149.14285714285714</ele><time>2026-04-25T14:09:45.977Z</time></trkpt><trkpt lat="39.29162525164267" lon="8.520805435800309"><ele>148.28571428571428</ele><time>2026-04-25T14:09:51.977Z</time></trkpt><trkpt lat="39.291693314221924" lon="8.52079909618066"><ele>147.42857142857144</ele><time>2026-04-25T14:09:57.977Z</time></trkpt><trkpt lat="39.291759235985694" lon="8.52077723007332"><ele>146.57142857142856</ele><time>2026-04-25T14:10:05.977Z</time></trkpt><trkpt lat="39.29182313854026" lon="8.520770704404448"><ele>145.71428571428572</ele><time>2026-04-25T14:10:13.977Z</time></trkpt><trkpt lat="39.29187942994531" lon="8.520828644576799"><ele>144.85714285714286</ele><time>2026-04-25T14:10:20.978Z</time></trkpt><trkpt lat="39.29186767691086" lon="8.52091834038345"><ele>144.0</ele><time>2026-04-25T14:10:27.978Z</time></trkpt><trkpt lat="39.291853926846976" lon="8.521001992872037"><ele>144.00000000000003</ele><time>2026-04-25T14:10:34.978Z</time></trkpt><trkpt lat="39.29186474149296" lon="8.521095695785535"><ele>144.0</ele><time>2026-04-25T14:10:41.978Z</time></trkpt><trkpt lat="39.29188892169362" lon="8.521178801077003"><ele>144.0</ele><time>2026-04-25T14:10:48.978Z</time></trkpt><trkpt lat="39.29192296538669" lon="8.52125048928546"><ele>144.0</ele><time>2026-04-25T14:10:55.978Z</time></trkpt><trkpt lat="39.291918510101425" lon="8.521331862408227"><ele>144.0</ele><time>2026-04-25T14:11:01.978Z</time></trkpt><trkpt lat="39.29190414195783" lon="8.521426380726242"><ele>144.00000000000003</ele><time>2026-04-25T14:11:08.978Z</time></trkpt><trkpt lat="39.29190210228692" lon="8.521510623667773"><ele>144.0</ele><time>2026-04-25T14:11:14.978Z</time></trkpt><trkpt lat="39.291923754442294" lon="8.52159843583719"><ele>144.2857142857143</ele><time>2026-04-25T14:11:21.978Z</time></trkpt><trkpt lat="39.29191746180293" lon="8.521682796770456"><ele>144.57142857142858</ele><time>2026-04-25T14:11:27.978Z</time></trkpt><trkpt lat="39.29193505459754" lon="8.52176412618316"><ele>144.85714285714286</ele><time>2026-04-25T14:11:34.978Z</time></trkpt><trkpt lat="39.29194893119866" lon="8.521846087960453"><ele>145.14285714285717</ele><time>2026-04-25T14:11:41.978Z</time></trkpt><trkpt lat="39.29196587933896" lon="8.52193839709933"><ele>145.42857142857144</ele><time>2026-04-25T14:11:47.978Z</time></trkpt><trkpt lat="39.2920158643375" lon="8.52199586136687"><ele>145.71428571428572</ele><time>2026-04-25T14:11:56.976Z</time></trkpt><trkpt lat="39.292072863034754" lon="8.52203145277576"><ele>146.0</ele><time>2026-04-25T14:12:02.977Z</time></trkpt><trkpt lat="39.29213528620119" lon="8.52205053102735"><ele>145.85714285714286</ele><time>2026-04-25T14:12:07.977Z</time></trkpt><trkpt lat="39.2921857033129" lon="8.522118606161413"><ele>145.71428571428572</ele><time>2026-04-25T14:12:14.977Z</time></trkpt><trkpt lat="39.29223194007535" lon="8.522181195196444"><ele>145.57142857142858</ele><time>2026-04-25T14:12:20.977Z</time></trkpt><trkpt lat="39.29226209520017" lon="8.522254248180396"><ele>145.42857142857144</ele><time>2026-04-25T14:12:26.977Z</time></trkpt><trkpt lat="39.2923115588367" lon="8.522321153050559"><ele>145.2857142857143</ele><time>2026-04-25T14:12:33.977Z</time></trkpt><trkpt lat="39.2923713410169" lon="8.522359409972875"><ele>145.14285714285714</ele><time>2026-04-25T14:12:39.977Z</time></trkpt><trkpt lat="39.2924374462398" lon="8.522356469142004"><ele>145.0</ele><time>2026-04-25T14:12:46.977Z</time></trkpt><trkpt lat="39.29244912148831" lon="8.522268919539446"><ele>145.0</ele><time>2026-04-25T14:12:53.977Z</time></trkpt><trkpt lat="39.292447941387614" lon="8.522178273199247"><ele>145.0</ele><time>2026-04-25T14:12:59.977Z</time></trkpt><trkpt lat="39.29245610465757" lon="8.52209389049791"><ele>145.0</ele><time>2026-04-25T14:13:06.977Z</time></trkpt><trkpt lat="39.29245533187562" lon="8.52199272492278"><ele>145.0</ele><time>2026-04-25T14:13:13.978Z</time></trkpt><trkpt lat="39.292468377675085" lon="8.521911247638888"><ele>145.0</ele><time>2026-04-25T14:13:19.978Z</time></trkpt><trkpt lat="39.29248300607895" lon="8.521830270170353"><ele>145.0</ele><time>2026-04-25T14:13:25.978Z</time></trkpt><trkpt lat="39.29250769803217" lon="8.521733759966164"><ele>145.0</ele><time>2026-04-25T14:13:32.978Z</time></trkpt><trkpt lat="39.29252004015747" lon="8.521653990032657"><ele>144.71428571428572</ele><time>2026-04-25T14:13:45.978Z</time></trkpt><trkpt lat="39.29252430472132" lon="8.521561563569756"><ele>144.42857142857144</ele><time>2026-04-25T14:13:55.978Z</time></trkpt><trkpt lat="39.29253003719247" lon="8.521472506365594"><ele>144.14285714285714</ele><time>2026-04-25T14:14:01.976Z</time></trkpt><trkpt lat="39.292528023358585" lon="8.521382097610434"><ele>143.85714285714286</ele><time>2026-04-25T14:14:08.976Z</time></trkpt><trkpt lat="39.292526059977725" lon="8.521298749619397"><ele>143.57142857142856</ele><time>2026-04-25T14:14:19.977Z</time></trkpt><trkpt lat="39.29252898682324" lon="8.521215325605032"><ele>143.28571428571428</ele><time>2026-04-25T14:14:25.977Z</time></trkpt><trkpt lat="39.292525476892884" lon="8.52112101240669"><ele>143.0</ele><time>2026-04-25T14:14:31.977Z</time></trkpt><trkpt lat="39.29253328540579" lon="8.521026290261819"><ele>142.57142857142856</ele><time>2026-04-25T14:14:37.977Z</time></trkpt><trkpt lat="39.292575900357086" lon="8.520961011550806"><ele>142.14285714285714</ele><time>2026-04-25T14:14:43.977Z</time></trkpt><trkpt lat="39.29264096457926" lon="8.52091755889585"><ele>141.71428571428572</ele><time>2026-04-25T14:14:57.977Z</time></trkpt><trkpt lat="39.29270223556558" lon="8.520880354735308"><ele>141.28571428571428</ele><time>2026-04-25T14:15:04.977Z</time></trkpt><trkpt lat="39.29276880504685" lon="8.520880958230933"><ele>140.85714285714286</ele><time>2026-04-25T14:15:11.977Z</time></trkpt><trkpt lat="39.29283300725582" lon="8.520873492588533"><ele>140.42857142857142</ele><time>2026-04-25T14:15:16.977Z</time></trkpt><trkpt lat="39.29290064128209" lon="8.520889631216043"><ele>140.0</ele><time>2026-04-25T14:15:22.977Z</time></trkpt><trkpt lat="39.29296956394189" lon="8.520908749623677"><ele>140.0</ele><time>2026-04-25T14:15:28.978Z</time></trkpt><trkpt lat="39.29302465864733" lon="8.520950944451258"><ele>140.0</ele><time>2026-04-25T14:15:34.978Z</time></trkpt><trkpt lat="39.29304051677461" lon="8.521034735074627"><ele>140.0</ele><time>2026-04-25T14:15:40.978Z</time></trkpt><trkpt lat="39.29305208892101" lon="8.521122857300929"><ele>140.0</ele><time>2026-04-25T14:15:46.978Z</time></trkpt><trkpt lat="39.293053741886794" lon="8.521214263907792"><ele>140.0</ele><time>2026-04-25T14:15:52.978Z</time></trkpt><trkpt lat="39.293057255193375" lon="8.521309189491596"><ele>140.0</ele><time>2026-04-25T14:15:58.978Z</time></trkpt><trkpt lat="39.29305111204926" lon="8.521402330387868"><ele>140.0</ele><time>2026-04-25T14:16:04.975Z</time></trkpt><trkpt lat="39.293066829109435" lon="8.52148681050775"><ele>140.42857142857142</ele><time>2026-04-25T14:16:10.975Z</time></trkpt><trkpt lat="39.29305781422746" lon="8.521567576973462"><ele>140.85714285714286</ele><time>2026-04-25T14:16:15.976Z</time></trkpt><trkpt lat="39.29307083815126" lon="8.521648108487565"><ele>141.28571428571428</ele><time>2026-04-25T14:16:30.976Z</time></trkpt><trkpt lat="39.293063425785995" lon="8.521740977663482"><ele>141.71428571428572</ele><time>2026-04-25T14:16:36.976Z</time></trkpt><trkpt lat="39.29304867609482" lon="8.521829163050658"><ele>142.14285714285714</ele><time>2026-04-25T14:16:42.976Z</time></trkpt><trkpt lat="39.29303603860053" lon="8.521920541531768"><ele>142.57142857142856</ele><time>2026-04-25T14:16:48.976Z</time></trkpt><trkpt lat="39.29303697680716" lon="8.522002747075263"><ele>143.0</ele><time>2026-04-25T14:16:54.976Z</time></trkpt><trkpt lat="39.29307227934868" lon="8.522076896535912"><ele>143.57142857142856</ele><time>2026-04-25T14:17:01.976Z</time></trkpt><trkpt lat="39.29313910994282" lon="8.522101786184054"><ele>144.14285714285714</ele><time>2026-04-25T14:17:08.976Z</time></trkpt><trkpt lat="39.29318284999832" lon="8.522036233161572"><ele>144.71428571428572</ele><time>2026-04-25T14:17:15.976Z</time></trkpt><trkpt lat="39.2931906445691" lon="8.521943296884967"><ele>145.28571428571428</ele><time>2026-04-25T14:17:22.976Z</time></trkpt><trkpt lat="39.29319628861058" lon="8.521857174729298"><ele>145.85714285714286</ele><time>2026-04-25T14:17:28.976Z</time></trkpt><trkpt lat="39.293198419128316" lon="8.52176892404003"><ele>146.42857142857142</ele><time>2026-04-25T14:17:33.976Z</time></trkpt><trkpt lat="39.29320801731119" lon="8.521687666903887"><ele>147.0</ele><time>2026-04-25T14:17:39.976Z</time></trkpt><trkpt lat="39.293208603270955" lon="8.521594294395577"><ele>147.28571428571428</ele><time>2026-04-25T14:17:45.976Z</time></trkpt><trkpt lat="39.29322773960969" lon="8.521516419621213"><ele>147.57142857142856</ele><time>2026-04-25T14:17:50.976Z</time></trkpt><trkpt lat="39.293233773521244" lon="8.521431095592998"><ele>147.85714285714286</ele><time>2026-04-25T14:17:55.976Z</time></trkpt><trkpt lat="39.293228168389504" lon="8.521332697168083"><ele>148.14285714285714</ele><time>2026-04-25T14:18:02.977Z</time></trkpt><trkpt lat="39.29319805739039" lon="8.521253039741273"><ele>148.42857142857142</ele><time>2026-04-25T14:18:09.976Z</time></trkpt><trkpt lat="39.2931669333771" lon="8.521175818443677"><ele>148.71428571428572</ele><time>2026-04-25T14:18:26.975Z</time></trkpt><trkpt lat="39.29317141115726" lon="8.521093638070798"><ele>149.0</ele><time>2026-04-25T14:18:33.975Z</time></trkpt><trkpt lat="39.29319389990113" lon="8.521015538387916"><ele>148.0</ele><time>2026-04-25T14:18:38.975Z</time></trkpt><trkpt lat="39.29324685749097" lon="8.52095505102581"><ele>147.0</ele><time>2026-04-25T14:18:44.975Z</time></trkpt><trkpt lat="39.293310930778794" lon="8.520923073992325"><ele>146.0</ele><time>2026-04-25T14:18:50.975Z</time></trkpt><trkpt lat="39.2933843424349" lon="8.52092056457512"><ele>145.0</ele><time>2026-04-25T14:18:56.975Z</time></trkpt><trkpt lat="39.293457172729056" lon="8.520926229144417"><ele>144.0</ele><time>2026-04-25T14:19:03.975Z</time></trkpt><trkpt lat="39.29352072551595" lon="8.52094716978224"><ele>143.0</ele><time>2026-04-25T14:19:09.975Z</time></trkpt><trkpt lat="39.29358380021588" lon="8.520972956378854"><ele>142.0</ele><time>2026-04-25T14:19:15.976Z</time></trkpt><trkpt lat="39.293658374001716" lon="8.52098784541019"><ele>142.0</ele><time>2026-04-25T14:19:22.976Z</time></trkpt><trkpt lat="39.29371696062191" lon="8.521022535273646"><ele>142.0</ele><time>2026-04-25T14:19:27.976Z</time></trkpt><trkpt lat="39.293772019705294" lon="8.52107788119699"><ele>142.0</ele><time>2026-04-25T14:19:33.976Z</time></trkpt><trkpt lat="39.29380201470438" lon="8.521152004078344"><ele>142.0</ele><time>2026-04-25T14:19:39.976Z</time></trkpt><trkpt lat="39.293802260804654" lon="8.521252682778346"><ele>142.0</ele><time>2026-04-25T14:19:45.976Z</time></trkpt><trkpt lat="39.293739424231994" lon="8.521301678736805"><ele>142.0</ele><time>2026-04-25T14:19:50.976Z</time></trkpt><trkpt lat="39.293677115864575" lon="8.521313976421105"><ele>142.0</ele><time>2026-04-25T14:19:56.976Z</time></trkpt><trkpt lat="39.2936045348902" lon="8.521316937048967"><ele>143.0</ele><time>2026-04-25T14:20:02.976Z</time></trkpt><trkpt lat="39.29354168800091" lon="8.521328688751026"><ele>144.0</ele><time>2026-04-25T14:20:07.976Z</time></trkpt><trkpt lat="39.293479067423824" lon="8.521364341451322"><ele>145.0</ele><time>2026-04-25T14:20:13.976Z</time></trkpt><trkpt lat="39.293443229041245" lon="8.521448046495323"><ele>146.0</ele><time>2026-04-25T14:20:20.975Z</time></trkpt><trkpt lat="39.293422673079725" lon="8.52153046108684"><ele>147.0</ele><time>2026-04-25T14:20:26.974Z</time></trkpt><trkpt lat="39.29339512628541" lon="8.521603603842067"><ele>148.0</ele><time>2026-04-25T14:20:31.974Z</time></trkpt><trkpt lat="39.29337430890032" lon="8.521687956983648"><ele>149.0</ele><time>2026-04-25T14:20:37.974Z</time></trkpt><trkpt lat="39.2933805215554" lon="8.521778522358394"><ele>149.0</ele><time>2026-04-25T14:20:43.974Z</time></trkpt><trkpt lat="39.29340884234419" lon="8.521852260085208"><ele>149.0</ele><time>2026-04-25T14:20:48.974Z</time></trkpt><trkpt lat="39.29342291056781" lon="8.521938400225048"><ele>149.0</ele><time>2026-04-25T14:20:54.974Z</time></trkpt><trkpt lat="39.29345619737012" lon="8.522023095944892"><ele>149.0</ele><time>2026-04-25T14:21:00.974Z</time></trkpt><trkpt lat="39.29347427764154" lon="8.522107632814055"><ele>149.0</ele><time>2026-04-25T14:21:06.974Z</time></trkpt><trkpt lat="39.293455944339705" lon="8.522187897265589"><ele>149.0</ele><time>2026-04-25T14:21:11.974Z</time></trkpt><trkpt lat="39.29342299365327" lon="8.522258565443037"><ele>149.0</ele><time>2026-04-25T14:21:16.974Z</time></trkpt><trkpt lat="39.29336960874562" lon="8.522315754324458"><ele>148.71428571428572</ele><time>2026-04-25T14:21:22.975Z</time></trkpt><trkpt lat="39.29331095398896" lon="8.522360467515728"><ele>148.42857142857142</ele><time>2026-04-25T14:21:27.975Z</time></trkpt><trkpt lat="39.29325417855398" lon="8.522399232308237"><ele>148.14285714285714</ele><time>2026-04-25T14:21:43.975Z</time></trkpt><trkpt lat="39.2931892029051" lon="8.522412529318117"><ele>147.85714285714286</ele><time>2026-04-25T14:21:55.975Z</time></trkpt><trkpt lat="39.293113487653216" lon="8.522421709966517"><ele>147.57142857142856</ele><time>2026-04-25T14:22:01.975Z</time></trkpt><trkpt lat="39.29304164195707" lon="8.522446252808448"><ele>147.28571428571428</ele><time>2026-04-25T14:22:07.975Z</time></trkpt><trkpt lat="39.29298577224495" lon="8.52250490492789"><ele>147.0</ele><time>2026-04-25T14:22:13.975Z</time></trkpt><trkpt lat="39.29292674982403" lon="8.522548666617267"><ele>146.85714285714286</ele><time>2026-04-25T14:22:19.975Z</time></trkpt><trkpt lat="39.29290173604954" lon="8.52263065287127"><ele>146.71428571428572</ele><time>2026-04-25T14:22:24.975Z</time></trkpt><trkpt lat="39.29289538157827" lon="8.522713918423193"><ele>146.57142857142856</ele><time>2026-04-25T14:22:30.975Z</time></trkpt><trkpt lat="39.29287726084538" lon="8.522799517909771"><ele>146.42857142857144</ele><time>2026-04-25T14:22:35.974Z</time></trkpt><trkpt lat="39.292871111305814" lon="8.522882942740592"><ele>146.28571428571428</ele><time>2026-04-25T14:22:41.974Z</time></trkpt><trkpt lat="39.29286193951455" lon="8.522970574582601"><ele>146.14285714285714</ele><time>2026-04-25T14:22:58.974Z</time></trkpt><trkpt lat="39.29283264251003" lon="8.523046276381368"><ele>146.0</ele><time>2026-04-25T14:23:03.974Z</time></trkpt><trkpt lat="39.29280417250071" lon="8.523133143110151"><ele>146.0</ele><time>2026-04-25T14:23:09.974Z</time></trkpt><trkpt lat="39.29277219732223" lon="8.523211455437735"><ele>146.0</ele><time>2026-04-25T14:23:15.974Z</time></trkpt><trkpt lat="39.29274131457574" lon="8.523291140345892"><ele>146.0</ele><time>2026-04-25T14:23:24.974Z</time></trkpt><trkpt lat="39.292709442398525" lon="8.52336405880911"><ele>146.0</ele><time>2026-04-25T14:23:29.975Z</time></trkpt><trkpt lat="39.29270721610052" lon="8.523445443216342"><ele>146.0</ele><time>2026-04-25T14:23:35.975Z</time></trkpt><trkpt lat="39.29276725769345" lon="8.523485387166396"><ele>146.0</ele><time>2026-04-25T14:23:43.975Z</time></trkpt><trkpt lat="39.29283985420513" lon="8.523490204426698"><ele>146.0</ele><time>2026-04-25T14:23:49.975Z</time></trkpt><trkpt lat="39.292897828314196" lon="8.523437946981298"><ele>146.0</ele><time>2026-04-25T14:23:55.975Z</time></trkpt><trkpt lat="39.29292190696544" lon="8.52335269708329"><ele>146.0</ele><time>2026-04-25T14:24:00.975Z</time></trkpt><trkpt lat="39.29291621655296" lon="8.523264805667461"><ele>146.0</ele><time>2026-04-25T14:24:06.976Z</time></trkpt><trkpt lat="39.292965120117" lon="8.523197172074292"><ele>146.0</ele><time>2026-04-25T14:24:11.976Z</time></trkpt><trkpt lat="39.293008165513356" lon="8.523123610252561"><ele>146.0</ele><time>2026-04-25T14:24:17.976Z</time></trkpt><trkpt lat="39.29305420064101" lon="8.523053285996529"><ele>146.0</ele><time>2026-04-25T14:24:22.976Z</time></trkpt><trkpt lat="39.29305902502621" lon="8.522967104252164"><ele>146.0</ele><time>2026-04-25T14:24:27.975Z</time></trkpt><trkpt lat="39.2930561874963" lon="8.522869187640701"><ele>145.85714285714286</ele><time>2026-04-25T14:24:33.974Z</time></trkpt><trkpt lat="39.293049272290126" lon="8.522777894475881"><ele>145.71428571428572</ele><time>2026-04-25T14:24:39.974Z</time></trkpt><trkpt lat="39.29305946086308" lon="8.522690488945454"><ele>145.57142857142858</ele><time>2026-04-25T14:24:44.975Z</time></trkpt><trkpt lat="39.293122190548885" lon="8.522633598397544"><ele>145.42857142857144</ele><time>2026-04-25T14:24:50.975Z</time></trkpt><trkpt lat="39.29319009267858" lon="8.522619058034971"><ele>145.2857142857143</ele><time>2026-04-25T14:24:56.975Z</time></trkpt><trkpt lat="39.29325898206615" lon="8.52259584056389"><ele>145.14285714285714</ele><time>2026-04-25T14:25:03.975Z</time></trkpt><trkpt lat="39.293325811276944" lon="8.522581605404884"><ele>145.0</ele><time>2026-04-25T14:25:09.975Z</time></trkpt><trkpt lat="39.29331252722991" lon="8.522668511784877"><ele>145.28571428571428</ele><time>2026-04-25T14:25:14.975Z</time></trkpt><trkpt lat="39.29328055393458" lon="8.522744501554723"><ele>145.57142857142858</ele><time>2026-04-25T14:25:20.975Z</time></trkpt><trkpt lat="39.29325575870079" lon="8.522836809768311"><ele>145.85714285714286</ele><time>2026-04-25T14:25:27.975Z</time></trkpt><trkpt lat="39.29331781885992" lon="8.52289073963401"><ele>146.14285714285714</ele><time>2026-04-25T14:25:33.975Z</time></trkpt><trkpt lat="39.293389249590895" lon="8.52286339927253"><ele>146.42857142857144</ele><time>2026-04-25T14:25:40.975Z</time></trkpt><trkpt lat="39.29341843936" lon="8.522784876542342"><ele>146.71428571428572</ele><time>2026-04-25T14:25:46.975Z</time></trkpt><trkpt lat="39.29346062970091" lon="8.522708062577253"><ele>147.0</ele><time>2026-04-25T14:25:54.975Z</time></trkpt><trkpt lat="39.29351637479179" lon="8.522655770398865"><ele>147.0</ele><time>2026-04-25T14:26:03.975Z</time></trkpt><trkpt lat="39.293540579392726" lon="8.522578399130118"><ele>147.0</ele><time>2026-04-25T14:26:10.975Z</time></trkpt></trkseg></trk></gpx>